sensor_id;sensor_type;location;lat;lon;timestamp;temperature;humidity
18906;DHT22;9585;51.018;4.282;2022-12-07T00:01:04;3.40;99.90
18906;DHT22;9585;51.018;4.282;2022-12-07T00:03:32;3.40;99.90
18906;DHT22;9585;51.018;4.282;2022-12-07T00:06:00;3.30;99.90
18906;DHT22;9585;51.018;4.282;2022-12-07T00:08:30;3.20;99.90
18906;DHT22;9585;51.018;4.282;2022-12-07T00:11:01;3.10;99.90
18906;DHT22;9585;51.018;4.282;2022-12-07T00:13:29;3.10;99.90
18906;DHT22;9585;51.018;4.282;2022-12-07T00:16:00;3.00;99.90
18906;DHT22;9585;51.018;4.282;2022-12-07T00:18:27;2.90;99.90
18906;DHT22;9585;51.018;4.282;2022-12-07T00:20:59;2.80;99.90
18906;DHT22;9585;51.018;4.282;2022-12-07T00:23:30;2.80;99.90
18906;DHT22;9585;51.018;4.282;2022-12-07T00:26:04;2.80;99.90
18906;DHT22;9585;51.018;4.282;2022-12-07T00:28:31;2.70;99.90
18906;DHT22;9585;51.018;4.282;2022-12-07T00:31:03;2.70;99.90
18906;DHT22;9585;51.018;4.282;2022-12-07T00:33:31;2.70;99.90
18906;DHT22;9585;51.018;4.282;2022-12-07T00:35:59;2.60;99.90
18906;DHT22;9585;51.018;4.282;2022-12-07T00:38:30;2.60;99.90
18906;DHT22;9585;51.018;4.282;2022-12-07T00:41:00;2.60;99.90
18906;DHT22;9585;51.018;4.282;2022-12-07T00:43:27;2.50;99.90
18906;DHT22;9585;51.018;4.282;2022-12-07T00:45:55;2.50;99.90
18906;DHT22;9585;51.018;4.282;2022-12-07T00:48:23;2.40;99.90
18906;DHT22;9585;51.018;4.282;2022-12-07T00:50:51;2.40;99.90
18906;DHT22;9585;51.018;4.282;2022-12-07T00:53:18;2.40;99.90
18906;DHT22;9585;51.018;4.282;2022-12-07T00:55:47;2.30;99.90
18906;DHT22;9585;51.018;4.282;2022-12-07T00:58:14;2.30;99.90
18906;DHT22;9585;51.018;4.282;2022-12-07T01:00:42;2.30;99.90
18906;DHT22;9585;51.018;4.282;2022-12-07T01:03:11;2.30;99.90
18906;DHT22;9585;51.018;4.282;2022-12-07T01:05:39;2.30;99.90
18906;DHT22;9585;51.018;4.282;2022-12-07T01:08:08;2.30;99.90
18906;DHT22;9585;51.018;4.282;2022-12-07T01:10:35;2.30;99.90
18906;DHT22;9585;51.018;4.282;2022-12-07T01:13:04;2.40;99.90
18906;DHT22;9585;51.018;4.282;2022-12-07T01:15:31;2.50;99.90
18906;DHT22;9585;51.018;4.282;2022-12-07T01:17:58;2.50;99.90
18906;DHT22;9585;51.018;4.282;2022-12-07T01:20:26;2.60;99.90
18906;DHT22;9585;51.018;4.282;2022-12-07T01:22:53;2.70;99.90
18906;DHT22;9585;51.018;4.282;2022-12-07T01:25:21;2.90;99.90
18906;DHT22;9585;51.018;4.282;2022-12-07T01:27:48;3.00;99.90
18906;DHT22;9585;51.018;4.282;2022-12-07T01:30:17;3.00;99.90
18906;DHT22;9585;51.018;4.282;2022-12-07T01:32:51;3.00;99.90
18906;DHT22;9585;51.018;4.282;2022-12-07T01:35:19;3.10;99.90
18906;DHT22;9585;51.018;4.282;2022-12-07T01:37:46;3.10;99.90
18906;DHT22;9585;51.018;4.282;2022-12-07T01:40:13;3.10;99.90
18906;DHT22;9585;51.018;4.282;2022-12-07T01:42:41;3.20;99.90
18906;DHT22;9585;51.018;4.282;2022-12-07T01:48:07;3.30;99.90
18906;DHT22;9585;51.018;4.282;2022-12-07T01:50:38;3.30;99.90
18906;DHT22;9585;51.018;4.282;2022-12-07T01:53:07;3.40;99.90
18906;DHT22;9585;51.018;4.282;2022-12-07T01:55:40;3.30;99.90
18906;DHT22;9585;51.018;4.282;2022-12-07T01:58:28;3.30;99.90
18906;DHT22;9585;51.018;4.282;2022-12-07T02:00:57;3.50;99.90
18906;DHT22;9585;51.018;4.282;2022-12-07T02:03:27;3.50;99.90
18906;DHT22;9585;51.018;4.282;2022-12-07T02:05:57;3.50;99.90
18906;DHT22;9585;51.018;4.282;2022-12-07T02:08:26;3.50;99.90
18906;DHT22;9585;51.018;4.282;2022-12-07T02:10:53;3.50;99.90
18906;DHT22;9585;51.018;4.282;2022-12-07T02:13:24;3.50;99.90
18906;DHT22;9585;51.018;4.282;2022-12-07T02:16:09;3.50;99.90
18906;DHT22;9585;51.018;4.282;2022-12-07T02:18:48;3.40;99.90
18906;DHT22;9585;51.018;4.282;2022-12-07T02:21:27;3.30;99.90
18906;DHT22;9585;51.018;4.282;2022-12-07T02:24:24;3.30;99.90
18906;DHT22;9585;51.018;4.282;2022-12-07T02:27:25;3.30;99.90
18906;DHT22;9585;51.018;4.282;2022-12-07T02:30:00;3.20;99.90
18906;DHT22;9585;51.018;4.282;2022-12-07T02:32:39;3.20;99.90
18906;DHT22;9585;51.018;4.282;2022-12-07T02:35:11;3.20;99.90
18906;DHT22;9585;51.018;4.282;2022-12-07T02:37:55;3.20;99.90
18906;DHT22;9585;51.018;4.282;2022-12-07T02:40:29;3.20;99.90
18906;DHT22;9585;51.018;4.282;2022-12-07T02:43:01;3.20;99.90
18906;DHT22;9585;51.018;4.282;2022-12-07T02:45:35;3.30;99.90
18906;DHT22;9585;51.018;4.282;2022-12-07T02:48:06;3.30;99.90
18906;DHT22;9585;51.018;4.282;2022-12-07T02:50:34;3.30;99.90
18906;DHT22;9585;51.018;4.282;2022-12-07T02:53:01;3.30;99.90
18906;DHT22;9585;51.018;4.282;2022-12-07T02:55:31;3.30;99.90
18906;DHT22;9585;51.018;4.282;2022-12-07T02:58:18;3.30;99.90
18906;DHT22;9585;51.018;4.282;2022-12-07T03:00:56;3.40;99.90
18906;DHT22;9585;51.018;4.282;2022-12-07T03:03:27;3.40;99.90
18906;DHT22;9585;51.018;4.282;2022-12-07T03:06:09;3.40;99.90
18906;DHT22;9585;51.018;4.282;2022-12-07T03:08:46;3.40;99.90
18906;DHT22;9585;51.018;4.282;2022-12-07T03:11:17;3.40;99.90
18906;DHT22;9585;51.018;4.282;2022-12-07T03:13:50;3.30;99.90
18906;DHT22;9585;51.018;4.282;2022-12-07T03:16:26;3.30;99.90
18906;DHT22;9585;51.018;4.282;2022-12-07T03:18:59;3.30;99.90
18906;DHT22;9585;51.018;4.282;2022-12-07T03:21:29;3.30;99.90
18906;DHT22;9585;51.018;4.282;2022-12-07T03:24:00;3.30;99.90
18906;DHT22;9585;51.018;4.282;2022-12-07T03:26:32;3.30;99.90
18906;DHT22;9585;51.018;4.282;2022-12-07T03:29:04;3.30;99.90
18906;DHT22;9585;51.018;4.282;2022-12-07T03:31:38;3.30;99.90
18906;DHT22;9585;51.018;4.282;2022-12-07T03:34:10;3.30;99.90
18906;DHT22;9585;51.018;4.282;2022-12-07T03:36:42;3.30;99.90
18906;DHT22;9585;51.018;4.282;2022-12-07T03:39:16;3.30;99.90
18906;DHT22;9585;51.018;4.282;2022-12-07T03:41:46;3.20;99.90
18906;DHT22;9585;51.018;4.282;2022-12-07T03:44:15;3.20;99.90
18906;DHT22;9585;51.018;4.282;2022-12-07T03:46:50;3.10;99.90
18906;DHT22;9585;51.018;4.282;2022-12-07T03:49:23;3.00;99.90
18906;DHT22;9585;51.018;4.282;2022-12-07T03:51:55;3.00;99.90
18906;DHT22;9585;51.018;4.282;2022-12-07T03:54:26;2.90;99.90
18906;DHT22;9585;51.018;4.282;2022-12-07T03:56:57;2.80;99.90
18906;DHT22;9585;51.018;4.282;2022-12-07T03:59:25;2.70;99.90
18906;DHT22;9585;51.018;4.282;2022-12-07T04:01:56;2.70;99.90
18906;DHT22;9585;51.018;4.282;2022-12-07T04:04:24;2.70;99.90
18906;DHT22;9585;51.018;4.282;2022-12-07T04:06:52;2.60;99.90
18906;DHT22;9585;51.018;4.282;2022-12-07T04:09:20;2.70;99.90
18906;DHT22;9585;51.018;4.282;2022-12-07T04:11:48;2.80;99.90
18906;DHT22;9585;51.018;4.282;2022-12-07T04:14:15;2.90;99.90
18906;DHT22;9585;51.018;4.282;2022-12-07T04:16:47;2.90;99.90
18906;DHT22;9585;51.018;4.282;2022-12-07T04:19:17;2.90;99.90
18906;DHT22;9585;51.018;4.282;2022-12-07T04:21:45;2.90;99.90
18906;DHT22;9585;51.018;4.282;2022-12-07T04:24:14;2.90;99.90
18906;DHT22;9585;51.018;4.282;2022-12-07T04:26:42;2.80;99.90
18906;DHT22;9585;51.018;4.282;2022-12-07T04:29:10;2.80;99.90
18906;DHT22;9585;51.018;4.282;2022-12-07T04:31:38;2.80;99.90
18906;DHT22;9585;51.018;4.282;2022-12-07T04:34:06;2.70;99.90
18906;DHT22;9585;51.018;4.282;2022-12-07T04:36:35;2.60;99.90
18906;DHT22;9585;51.018;4.282;2022-12-07T04:39:04;2.60;99.90
18906;DHT22;9585;51.018;4.282;2022-12-07T04:41:32;2.50;99.90
18906;DHT22;9585;51.018;4.282;2022-12-07T04:44:01;2.50;99.90
18906;DHT22;9585;51.018;4.282;2022-12-07T04:46:30;2.40;99.90
18906;DHT22;9585;51.018;4.282;2022-12-07T04:48:58;2.40;99.90
18906;DHT22;9585;51.018;4.282;2022-12-07T04:51:27;2.30;99.90
18906;DHT22;9585;51.018;4.282;2022-12-07T04:53:57;2.20;99.90
18906;DHT22;9585;51.018;4.282;2022-12-07T04:56:24;2.20;99.90
18906;DHT22;9585;51.018;4.282;2022-12-07T04:58:53;2.10;99.90
18906;DHT22;9585;51.018;4.282;2022-12-07T05:01:21;2.10;99.90
18906;DHT22;9585;51.018;4.282;2022-12-07T05:03:49;2.10;99.90
18906;DHT22;9585;51.018;4.282;2022-12-07T05:06:16;2.10;99.90
18906;DHT22;9585;51.018;4.282;2022-12-07T05:08:44;2.10;99.90
18906;DHT22;9585;51.018;4.282;2022-12-07T05:11:14;2.10;99.90
18906;DHT22;9585;51.018;4.282;2022-12-07T05:14:02;2.10;99.90
18906;DHT22;9585;51.018;4.282;2022-12-07T05:16:30;2.10;99.90
18906;DHT22;9585;51.018;4.282;2022-12-07T05:18:57;2.00;99.90
18906;DHT22;9585;51.018;4.282;2022-12-07T05:21:25;2.10;99.90
18906;DHT22;9585;51.018;4.282;2022-12-07T05:23:52;2.10;99.90
18906;DHT22;9585;51.018;4.282;2022-12-07T05:26:21;2.20;99.90
18906;DHT22;9585;51.018;4.282;2022-12-07T05:28:51;2.20;99.90
18906;DHT22;9585;51.018;4.282;2022-12-07T05:31:19;2.40;99.90
18906;DHT22;9585;51.018;4.282;2022-12-07T05:33:46;2.40;99.90
18906;DHT22;9585;51.018;4.282;2022-12-07T05:36:14;2.40;99.90
18906;DHT22;9585;51.018;4.282;2022-12-07T05:38:42;2.50;99.90
18906;DHT22;9585;51.018;4.282;2022-12-07T05:41:12;2.50;99.90
18906;DHT22;9585;51.018;4.282;2022-12-07T05:43:56;2.60;99.90
18906;DHT22;9585;51.018;4.282;2022-12-07T05:46:24;2.60;99.90
18906;DHT22;9585;51.018;4.282;2022-12-07T05:48:51;2.60;99.90
18906;DHT22;9585;51.018;4.282;2022-12-07T05:51:18;2.70;99.90
18906;DHT22;9585;51.018;4.282;2022-12-07T05:53:46;2.70;99.90
18906;DHT22;9585;51.018;4.282;2022-12-07T05:56:14;2.70;99.90
18906;DHT22;9585;51.018;4.282;2022-12-07T05:58:41;2.70;99.90
18906;DHT22;9585;51.018;4.282;2022-12-07T06:01:28;2.70;99.90
18906;DHT22;9585;51.018;4.282;2022-12-07T06:03:55;2.70;99.90
18906;DHT22;9585;51.018;4.282;2022-12-07T06:06:22;2.70;99.90
18906;DHT22;9585;51.018;4.282;2022-12-07T06:08:49;2.70;99.90
18906;DHT22;9585;51.018;4.282;2022-12-07T06:11:17;2.70;99.90
18906;DHT22;9585;51.018;4.282;2022-12-07T06:14:02;2.70;99.90
18906;DHT22;9585;51.018;4.282;2022-12-07T06:16:31;2.70;99.90
18906;DHT22;9585;51.018;4.282;2022-12-07T06:18:59;2.70;99.90
18906;DHT22;9585;51.018;4.282;2022-12-07T06:21:26;2.70;99.90
18906;DHT22;9585;51.018;4.282;2022-12-07T06:23:54;2.70;99.90
18906;DHT22;9585;51.018;4.282;2022-12-07T06:26:22;2.80;99.90
18906;DHT22;9585;51.018;4.282;2022-12-07T06:28:49;2.70;99.90
18906;DHT22;9585;51.018;4.282;2022-12-07T06:31:17;2.80;99.90
18906;DHT22;9585;51.018;4.282;2022-12-07T06:33:45;2.80;99.90
18906;DHT22;9585;51.018;4.282;2022-12-07T06:36:13;2.90;99.90
18906;DHT22;9585;51.018;4.282;2022-12-07T06:38:41;2.80;99.90
18906;DHT22;9585;51.018;4.282;2022-12-07T06:41:09;2.80;99.90
18906;DHT22;9585;51.018;4.282;2022-12-07T06:43:36;2.90;99.90
18906;DHT22;9585;51.018;4.282;2022-12-07T06:46:04;2.90;99.90
18906;DHT22;9585;51.018;4.282;2022-12-07T06:48:32;2.90;99.90
18906;DHT22;9585;51.018;4.282;2022-12-07T06:51:01;2.90;99.90
18906;DHT22;9585;51.018;4.282;2022-12-07T06:53:28;2.90;99.90
18906;DHT22;9585;51.018;4.282;2022-12-07T06:56:08;2.80;99.90
18906;DHT22;9585;51.018;4.282;2022-12-07T06:58:36;2.80;99.90
18906;DHT22;9585;51.018;4.282;2022-12-07T07:01:07;2.70;99.90
18906;DHT22;9585;51.018;4.282;2022-12-07T07:03:35;2.60;99.90
18906;DHT22;9585;51.018;4.282;2022-12-07T07:06:04;2.50;99.90
18906;DHT22;9585;51.018;4.282;2022-12-07T07:08:33;2.50;99.90
18906;DHT22;9585;51.018;4.282;2022-12-07T07:11:00;2.50;99.90
18906;DHT22;9585;51.018;4.282;2022-12-07T07:13:28;2.50;99.90
18906;DHT22;9585;51.018;4.282;2022-12-07T07:15:55;2.40;99.90
18906;DHT22;9585;51.018;4.282;2022-12-07T07:18:23;2.40;99.90
18906;DHT22;9585;51.018;4.282;2022-12-07T07:20:51;2.30;99.90
18906;DHT22;9585;51.018;4.282;2022-12-07T07:23:21;2.30;99.90
18906;DHT22;9585;51.018;4.282;2022-12-07T07:25:48;2.20;99.90
18906;DHT22;9585;51.018;4.282;2022-12-07T07:28:16;2.20;99.90
18906;DHT22;9585;51.018;4.282;2022-12-07T07:30:44;2.10;99.90
18906;DHT22;9585;51.018;4.282;2022-12-07T07:33:11;2.00;99.90
18906;DHT22;9585;51.018;4.282;2022-12-07T07:35:39;2.00;99.90
18906;DHT22;9585;51.018;4.282;2022-12-07T07:38:07;2.00;99.90
18906;DHT22;9585;51.018;4.282;2022-12-07T07:40:36;1.90;99.90
18906;DHT22;9585;51.018;4.282;2022-12-07T07:43:03;1.90;99.90
18906;DHT22;9585;51.018;4.282;2022-12-07T07:45:31;1.80;99.90
18906;DHT22;9585;51.018;4.282;2022-12-07T07:47:58;1.80;99.90
18906;DHT22;9585;51.018;4.282;2022-12-07T07:50:26;1.70;99.90
18906;DHT22;9585;51.018;4.282;2022-12-07T07:52:53;1.70;99.90
18906;DHT22;9585;51.018;4.282;2022-12-07T07:55:21;1.70;99.90
18906;DHT22;9585;51.018;4.282;2022-12-07T07:57:50;1.60;99.90
18906;DHT22;9585;51.018;4.282;2022-12-07T08:00:18;1.70;99.90
18906;DHT22;9585;51.018;4.282;2022-12-07T08:02:45;1.60;99.90
18906;DHT22;9585;51.018;4.282;2022-12-07T08:05:13;1.60;99.90
18906;DHT22;9585;51.018;4.282;2022-12-07T08:07:40;1.60;99.90
18906;DHT22;9585;51.018;4.282;2022-12-07T08:10:10;1.70;99.90
18906;DHT22;9585;51.018;4.282;2022-12-07T08:12:38;1.80;99.90
18906;DHT22;9585;51.018;4.282;2022-12-07T08:15:29;1.90;99.90
18906;DHT22;9585;51.018;4.282;2022-12-07T08:17:56;2.00;99.90
18906;DHT22;9585;51.018;4.282;2022-12-07T08:20:24;2.20;99.90
18906;DHT22;9585;51.018;4.282;2022-12-07T08:22:52;2.30;99.90
18906;DHT22;9585;51.018;4.282;2022-12-07T08:25:19;2.40;99.90
18906;DHT22;9585;51.018;4.282;2022-12-07T08:27:48;2.60;99.90
18906;DHT22;9585;51.018;4.282;2022-12-07T08:30:15;2.80;99.90
18906;DHT22;9585;51.018;4.282;2022-12-07T08:32:46;3.00;99.90
18906;DHT22;9585;51.018;4.282;2022-12-07T08:35:14;3.10;99.90
18906;DHT22;9585;51.018;4.282;2022-12-07T08:37:42;3.20;99.90
18906;DHT22;9585;51.018;4.282;2022-12-07T08:40:10;3.30;99.90
18906;DHT22;9585;51.018;4.282;2022-12-07T08:42:41;3.50;99.90
18906;DHT22;9585;51.018;4.282;2022-12-07T08:45:12;3.60;99.90
18906;DHT22;9585;51.018;4.282;2022-12-07T08:47:44;3.70;99.90
18906;DHT22;9585;51.018;4.282;2022-12-07T08:50:14;3.80;99.90
18906;DHT22;9585;51.018;4.282;2022-12-07T08:52:41;3.80;99.90
18906;DHT22;9585;51.018;4.282;2022-12-07T08:55:10;3.90;99.90
18906;DHT22;9585;51.018;4.282;2022-12-07T08:57:38;3.90;99.90
18906;DHT22;9585;51.018;4.282;2022-12-07T09:00:07;4.00;99.90
18906;DHT22;9585;51.018;4.282;2022-12-07T09:02:35;3.90;99.90
18906;DHT22;9585;51.018;4.282;2022-12-07T09:05:02;3.90;99.90
18906;DHT22;9585;51.018;4.282;2022-12-07T09:07:32;3.90;99.90
18906;DHT22;9585;51.018;4.282;2022-12-07T09:10:01;3.90;99.90
18906;DHT22;9585;51.018;4.282;2022-12-07T09:12:29;3.90;99.90
18906;DHT22;9585;51.018;4.282;2022-12-07T09:14:56;4.00;99.90
18906;DHT22;9585;51.018;4.282;2022-12-07T09:17:24;4.10;99.90
18906;DHT22;9585;51.018;4.282;2022-12-07T09:19:51;4.10;99.90
18906;DHT22;9585;51.018;4.282;2022-12-07T09:22:19;4.20;99.90
18906;DHT22;9585;51.018;4.282;2022-12-07T09:24:47;4.20;99.90
18906;DHT22;9585;51.018;4.282;2022-12-07T09:27:15;4.20;99.90
18906;DHT22;9585;51.018;4.282;2022-12-07T09:29:43;4.20;99.90
18906;DHT22;9585;51.018;4.282;2022-12-07T09:32:10;4.30;99.90
18906;DHT22;9585;51.018;4.282;2022-12-07T09:34:38;4.30;99.90
18906;DHT22;9585;51.018;4.282;2022-12-07T09:37:06;4.40;99.90
18906;DHT22;9585;51.018;4.282;2022-12-07T09:39:34;4.50;99.90
18906;DHT22;9585;51.018;4.282;2022-12-07T09:42:05;4.70;99.90
18906;DHT22;9585;51.018;4.282;2022-12-07T09:44:33;4.90;99.90
18906;DHT22;9585;51.018;4.282;2022-12-07T09:47:02;5.00;99.90
18906;DHT22;9585;51.018;4.282;2022-12-07T09:49:31;5.10;99.90
18906;DHT22;9585;51.018;4.282;2022-12-07T09:52:02;5.30;99.90
18906;DHT22;9585;51.018;4.282;2022-12-07T09:54:30;5.40;99.90
18906;DHT22;9585;51.018;4.282;2022-12-07T09:56:58;5.30;99.90
18906;DHT22;9585;51.018;4.282;2022-12-07T09:59:27;5.30;99.90
18906;DHT22;9585;51.018;4.282;2022-12-07T10:01:55;5.30;99.90
18906;DHT22;9585;51.018;4.282;2022-12-07T10:04:24;5.20;99.90
18906;DHT22;9585;51.018;4.282;2022-12-07T10:09:36;5.40;99.90
18906;DHT22;9585;51.018;4.282;2022-12-07T10:12:07;5.40;99.90
18906;DHT22;9585;51.018;4.282;2022-12-07T10:14:39;5.50;99.90
18906;DHT22;9585;51.018;4.282;2022-12-07T10:17:32;5.40;99.90
18906;DHT22;9585;51.018;4.282;2022-12-07T10:20:25;5.30;99.90
18906;DHT22;9585;51.018;4.282;2022-12-07T10:23:03;5.30;99.90
18906;DHT22;9585;51.018;4.282;2022-12-07T10:25:33;5.20;99.90
18906;DHT22;9585;51.018;4.282;2022-12-07T10:28:08;5.20;99.90
18906;DHT22;9585;51.018;4.282;2022-12-07T10:30:52;5.30;99.90
18906;DHT22;9585;51.018;4.282;2022-12-07T10:33:31;5.50;99.90
18906;DHT22;9585;51.018;4.282;2022-12-07T10:35:59;5.60;99.90
18906;DHT22;9585;51.018;4.282;2022-12-07T10:38:28;5.70;99.90
18906;DHT22;9585;51.018;4.282;2022-12-07T10:41:08;5.80;99.90
18906;DHT22;9585;51.018;4.282;2022-12-07T10:43:35;5.80;99.90
18906;DHT22;9585;51.018;4.282;2022-12-07T10:52:06;5.80;99.90
18906;DHT22;9585;51.018;4.282;2022-12-07T10:54:43;5.80;99.90
18906;DHT22;9585;51.018;4.282;2022-12-07T10:57:31;5.90;99.90
18906;DHT22;9585;51.018;4.282;2022-12-07T11:00:28;6.00;99.90
18906;DHT22;9585;51.018;4.282;2022-12-07T11:03:22;5.90;99.90
18906;DHT22;9585;51.018;4.282;2022-12-07T11:06:05;6.00;99.90
18906;DHT22;9585;51.018;4.282;2022-12-07T11:08:50;6.00;99.90
18906;DHT22;9585;51.018;4.282;2022-12-07T11:11:27;6.00;99.90
18906;DHT22;9585;51.018;4.282;2022-12-07T11:14:10;6.00;99.90
18906;DHT22;9585;51.018;4.282;2022-12-07T11:16:56;6.10;99.90
18906;DHT22;9585;51.018;4.282;2022-12-07T11:19:41;6.30;99.90
18906;DHT22;9585;51.018;4.282;2022-12-07T11:22:23;6.40;99.90
18906;DHT22;9585;51.018;4.282;2022-12-07T11:25:23;6.60;99.90
18906;DHT22;9585;51.018;4.282;2022-12-07T11:28:06;6.90;99.90
18906;DHT22;9585;51.018;4.282;2022-12-07T11:30:45;7.10;99.90
18906;DHT22;9585;51.018;4.282;2022-12-07T11:33:29;7.20;99.90
18906;DHT22;9585;51.018;4.282;2022-12-07T11:36:23;7.20;99.90
18906;DHT22;9585;51.018;4.282;2022-12-07T11:46:27;7.20;99.90
18906;DHT22;9585;51.018;4.282;2022-12-07T11:49:02;7.00;99.90
18906;DHT22;9585;51.018;4.282;2022-12-07T11:51:35;6.90;99.90
18906;DHT22;9585;51.018;4.282;2022-12-07T11:59:09;6.70;99.90
18906;DHT22;9585;51.018;4.282;2022-12-07T12:01:54;6.60;99.90
18906;DHT22;9585;51.018;4.282;2022-12-07T12:04:49;6.50;99.90
18906;DHT22;9585;51.018;4.282;2022-12-07T12:07:22;6.30;99.90
18906;DHT22;9585;51.018;4.282;2022-12-07T12:09:55;6.40;99.90
18906;DHT22;9585;51.018;4.282;2022-12-07T12:12:44;6.60;99.90
18906;DHT22;9585;51.018;4.282;2022-12-07T12:15:28;6.80;99.90
18906;DHT22;9585;51.018;4.282;2022-12-07T12:21:03;6.90;99.90
18906;DHT22;9585;51.018;4.282;2022-12-07T12:23:39;6.80;99.90
18906;DHT22;9585;51.018;4.282;2022-12-07T12:26:15;6.80;99.90
18906;DHT22;9585;51.018;4.282;2022-12-07T12:28:52;7.00;99.90
18906;DHT22;9585;51.018;4.282;2022-12-07T12:31:37;7.30;99.90
18906;DHT22;9585;51.018;4.282;2022-12-07T12:37:45;7.80;99.90
18906;DHT22;9585;51.018;4.282;2022-12-07T12:40:41;7.80;99.90
18906;DHT22;9585;51.018;4.282;2022-12-07T12:43:46;7.50;99.90
18906;DHT22;9585;51.018;4.282;2022-12-07T12:46:52;7.40;99.90
18906;DHT22;9585;51.018;4.282;2022-12-07T12:52:55;7.30;99.90
18906;DHT22;9585;51.018;4.282;2022-12-07T12:59:24;7.10;99.90
18906;DHT22;9585;51.018;4.282;2022-12-07T13:01:56;7.20;99.90
18906;DHT22;9585;51.018;4.282;2022-12-07T13:04:51;7.20;99.90
18906;DHT22;9585;51.018;4.282;2022-12-07T13:07:51;7.20;99.90
18906;DHT22;9585;51.018;4.282;2022-12-07T13:10:42;7.20;99.90
18906;DHT22;9585;51.018;4.282;2022-12-07T13:13:29;7.10;99.90
18906;DHT22;9585;51.018;4.282;2022-12-07T13:18:57;7.00;99.90
18906;DHT22;9585;51.018;4.282;2022-12-07T13:21:43;6.90;99.90
18906;DHT22;9585;51.018;4.282;2022-12-07T13:24:14;7.00;99.90
18906;DHT22;9585;51.018;4.282;2022-12-07T13:26:43;7.10;99.90
18906;DHT22;9585;51.018;4.282;2022-12-07T13:29:13;7.10;99.90
18906;DHT22;9585;51.018;4.282;2022-12-07T13:31:43;7.10;99.90
18906;DHT22;9585;51.018;4.282;2022-12-07T13:34:31;7.00;99.90
18906;DHT22;9585;51.018;4.282;2022-12-07T13:37:01;6.90;99.90
18906;DHT22;9585;51.018;4.282;2022-12-07T13:39:29;6.80;99.90
18906;DHT22;9585;51.018;4.282;2022-12-07T13:41:58;6.60;99.90
18906;DHT22;9585;51.018;4.282;2022-12-07T13:44:28;6.40;99.90
18906;DHT22;9585;51.018;4.282;2022-12-07T13:47:02;6.10;99.90
18906;DHT22;9585;51.018;4.282;2022-12-07T13:49:36;5.90;99.90
18906;DHT22;9585;51.018;4.282;2022-12-07T13:52:14;5.90;99.90
18906;DHT22;9585;51.018;4.282;2022-12-07T13:54:47;5.80;99.90
18906;DHT22;9585;51.018;4.282;2022-12-07T13:57:17;5.80;99.90
18906;DHT22;9585;51.018;4.282;2022-12-07T13:59:44;5.70;99.90
18906;DHT22;9585;51.018;4.282;2022-12-07T14:02:19;5.60;99.90
18906;DHT22;9585;51.018;4.282;2022-12-07T14:04:48;5.60;99.90
18906;DHT22;9585;51.018;4.282;2022-12-07T14:07:25;5.60;99.90
18906;DHT22;9585;51.018;4.282;2022-12-07T14:09:58;5.70;99.90
18906;DHT22;9585;51.018;4.282;2022-12-07T14:12:29;5.70;99.90
18906;DHT22;9585;51.018;4.282;2022-12-07T14:14:58;5.70;99.90
18906;DHT22;9585;51.018;4.282;2022-12-07T14:17:29;5.70;99.90
18906;DHT22;9585;51.018;4.282;2022-12-07T14:19:57;5.70;99.90
18906;DHT22;9585;51.018;4.282;2022-12-07T14:22:28;5.60;99.90
18906;DHT22;9585;51.018;4.282;2022-12-07T14:25:21;5.60;99.90
18906;DHT22;9585;51.018;4.282;2022-12-07T14:27:53;5.50;99.90
18906;DHT22;9585;51.018;4.282;2022-12-07T14:30:23;5.50;99.90
18906;DHT22;9585;51.018;4.282;2022-12-07T14:32:53;5.50;99.90
18906;DHT22;9585;51.018;4.282;2022-12-07T14:35:21;5.50;99.90
18906;DHT22;9585;51.018;4.282;2022-12-07T14:37:49;5.50;99.90
18906;DHT22;9585;51.018;4.282;2022-12-07T14:40:18;5.50;99.90
18906;DHT22;9585;51.018;4.282;2022-12-07T14:42:47;5.50;99.90
18906;DHT22;9585;51.018;4.282;2022-12-07T14:45:19;5.50;99.90
18906;DHT22;9585;51.018;4.282;2022-12-07T14:47:47;5.50;99.90
18906;DHT22;9585;51.018;4.282;2022-12-07T14:50:16;5.50;99.90
18906;DHT22;9585;51.018;4.282;2022-12-07T14:52:47;5.40;99.90
18906;DHT22;9585;51.018;4.282;2022-12-07T14:55:22;5.40;99.90
18906;DHT22;9585;51.018;4.282;2022-12-07T14:57:50;5.40;99.90
18906;DHT22;9585;51.018;4.282;2022-12-07T15:00:22;5.40;99.90
18906;DHT22;9585;51.018;4.282;2022-12-07T15:02:50;5.40;99.90
18906;DHT22;9585;51.018;4.282;2022-12-07T15:05:18;5.40;99.90
18906;DHT22;9585;51.018;4.282;2022-12-07T15:07:46;5.40;99.90
18906;DHT22;9585;51.018;4.282;2022-12-07T15:10:16;5.30;99.90
18906;DHT22;9585;51.018;4.282;2022-12-07T15:12:45;5.30;99.90
18906;DHT22;9585;51.018;4.282;2022-12-07T15:15:13;5.30;99.90
18906;DHT22;9585;51.018;4.282;2022-12-07T15:17:42;5.30;99.90
18906;DHT22;9585;51.018;4.282;2022-12-07T15:20:12;5.30;99.90
18906;DHT22;9585;51.018;4.282;2022-12-07T15:22:39;5.20;99.90
18906;DHT22;9585;51.018;4.282;2022-12-07T15:25:08;5.20;99.90
18906;DHT22;9585;51.018;4.282;2022-12-07T15:27:36;5.10;99.90
18906;DHT22;9585;51.018;4.282;2022-12-07T15:30:04;5.10;99.90
18906;DHT22;9585;51.018;4.282;2022-12-07T15:32:31;5.00;99.90
18906;DHT22;9585;51.018;4.282;2022-12-07T15:35:00;4.90;99.90
18906;DHT22;9585;51.018;4.282;2022-12-07T15:37:27;4.90;99.90
18906;DHT22;9585;51.018;4.282;2022-12-07T15:39:55;4.90;99.90
18906;DHT22;9585;51.018;4.282;2022-12-07T15:42:22;4.90;99.90
18906;DHT22;9585;51.018;4.282;2022-12-07T15:44:49;4.90;99.90
18906;DHT22;9585;51.018;4.282;2022-12-07T15:47:31;4.90;99.90
18906;DHT22;9585;51.018;4.282;2022-12-07T15:50:00;4.80;99.90
18906;DHT22;9585;51.018;4.282;2022-12-07T15:52:28;4.80;99.90
18906;DHT22;9585;51.018;4.282;2022-12-07T15:54:55;4.80;99.90
18906;DHT22;9585;51.018;4.282;2022-12-07T15:57:22;4.90;99.90
18906;DHT22;9585;51.018;4.282;2022-12-07T15:59:50;4.80;99.90
18906;DHT22;9585;51.018;4.282;2022-12-07T16:02:17;4.90;99.90
18906;DHT22;9585;51.018;4.282;2022-12-07T16:04:44;4.90;99.90
18906;DHT22;9585;51.018;4.282;2022-12-07T16:07:13;4.80;99.90
18906;DHT22;9585;51.018;4.282;2022-12-07T16:09:41;4.80;99.90
18906;DHT22;9585;51.018;4.282;2022-12-07T16:12:09;4.70;99.90
18906;DHT22;9585;51.018;4.282;2022-12-07T16:14:37;4.70;99.90
18906;DHT22;9585;51.018;4.282;2022-12-07T16:17:04;4.60;99.90
18906;DHT22;9585;51.018;4.282;2022-12-07T16:19:32;4.60;99.90
18906;DHT22;9585;51.018;4.282;2022-12-07T16:22:00;4.60;99.90
18906;DHT22;9585;51.018;4.282;2022-12-07T16:24:29;4.60;99.90
18906;DHT22;9585;51.018;4.282;2022-12-07T16:26:57;4.60;99.90
18906;DHT22;9585;51.018;4.282;2022-12-07T16:29:24;4.60;99.90
18906;DHT22;9585;51.018;4.282;2022-12-07T16:31:52;4.60;99.90
18906;DHT22;9585;51.018;4.282;2022-12-07T16:34:19;4.60;99.90
18906;DHT22;9585;51.018;4.282;2022-12-07T16:36:46;4.50;99.90
18906;DHT22;9585;51.018;4.282;2022-12-07T16:39:14;4.50;99.90
18906;DHT22;9585;51.018;4.282;2022-12-07T16:41:43;4.60;99.90
18906;DHT22;9585;51.018;4.282;2022-12-07T16:44:11;4.60;99.90
18906;DHT22;9585;51.018;4.282;2022-12-07T16:46:40;4.60;99.90
18906;DHT22;9585;51.018;4.282;2022-12-07T16:49:11;4.60;99.90
18906;DHT22;9585;51.018;4.282;2022-12-07T16:51:39;4.60;99.90
18906;DHT22;9585;51.018;4.282;2022-12-07T16:54:10;4.60;99.90
18906;DHT22;9585;51.018;4.282;2022-12-07T16:56:40;4.50;99.90
18906;DHT22;9585;51.018;4.282;2022-12-07T16:59:09;4.50;99.90
18906;DHT22;9585;51.018;4.282;2022-12-07T17:01:36;4.40;99.90
18906;DHT22;9585;51.018;4.282;2022-12-07T17:04:04;4.40;99.90
18906;DHT22;9585;51.018;4.282;2022-12-07T17:06:31;4.40;99.90
18906;DHT22;9585;51.018;4.282;2022-12-07T17:09:28;4.40;99.90
18906;DHT22;9585;51.018;4.282;2022-12-07T17:11:56;4.40;99.90